Time;durP1;ratioP1;P1;durP2;ratioP2;P2;SDS_P1;SDS_P2;PMS_P1;PMS_P2;Temp;Humidity;BMP_temperature;BMP_pressure;BME280_temperature;BME280_humidity;BME280_pressure;Samples;Min_cycle;Max_cycle;Signal;HPM_P1;HPM_P2
2021/08/27 00:00:59;;;;;;;;;;;;;;;34.49;27.88;93942.19;4875809;29;19927;-69
2021/08/27 00:03:26;;;;;;;;;;;;;;;34.54;27.56;93951.69;4872199;29;19937;-68
2021/08/27 00:05:53;;;;;;;;;;;;;;;34.77;27.37;93944.94;4842553;29;19929;-68
2021/08/27 00:08:20;;;;;;;;;;;;;;;34.68;27.54;93953.06;4837542;29;19924;-68
2021/08/27 00:10:46;;;;;;;;;;;;;;;34.33;28.13;93951.31;4839118;29;20301;-68
2021/08/27 00:13:13;;;;;;;;;;;;;;;34.16;28.20;93944.66;4824607;29;19924;-67
2021/08/27 00:15:40;;;;;;;;;;;;;;;34.38;27.99;93946.56;4824425;29;20309;-69
2021/08/27 00:18:07;;;;;;;;;;;;;;;34.12;28.38;93957.59;4831876;29;20324;-69
2021/08/27 00:20:34;;;;;;;;;;;;;;;34.45;27.97;93962.53;4835169;29;19933;-68
2021/08/27 00:23:01;;;;;;;;;;;;;;;34.06;28.61;93958.63;4824413;29;20260;-69
2021/08/27 00:25:28;;;;;;;;;;;;;;;34.35;28.24;93958.28;4840456;29;20321;-68
2021/08/27 00:27:54;;;;;;;;;;;;;;;34.32;28.47;93962.59;4835898;29;19932;-68
2021/08/27 00:30:21;;;;;;;;;;;;;;;34.61;27.93;93954.09;4833239;29;19928;-69
2021/08/27 00:32:48;;;;;;;;;;;;;;;34.46;28.33;93951.22;4834518;29;20328;-68
2021/08/27 00:35:15;;;;;;;;;;;;;;;34.47;27.99;93960.13;4841720;29;20495;-68
2021/08/27 00:37:42;;;;;;;;;;;;;;;34.51;28.12;93961.47;4842033;29;20356;-68
2021/08/27 00:40:09;;;;;;;;;;;;;;;34.63;27.81;93962.56;4837502;29;20335;-69
2021/08/27 00:42:36;;;;;;;;;;;;;;;34.69;27.59;93960.00;4824348;29;20567;-68
2021/08/27 00:45:03;;;;;;;;;;;;;;;34.77;27.49;93951.09;4822967;29;19921;-68
2021/08/27 00:47:30;;;;;;;;;;;;;;;34.66;27.58;93955.47;4827653;29;19924;-68
2021/08/27 00:49:56;;;;;;;;;;;;;;;34.72;27.51;93965.28;4831923;29;20232;-68
2021/08/27 00:52:23;;;;;;;;;;;;;;;34.81;27.43;93961.81;4825211;29;19928;-68
2021/08/27 00:54:51;;;;;;;;;;;;;;;34.70;27.60;93956.84;4824808;29;19925;-68
2021/08/27 00:57:18;;;;;;;;;;;;;;;34.60;27.73;93958.03;4835576;29;19928;-68
2021/08/27 00:59:45;;;;;;;;;;;;;;;34.61;27.94;93954.09;4841794;29;20284;-66
2021/08/27 01:02:12;;;;;;;;;;;;;;;34.80;27.74;93965.75;4828414;29;19928;-68
2021/08/27 01:04:40;;;;;;;;;;;;;;;34.02;28.87;93969.59;4841108;29;19931;-68
2021/08/27 01:07:32;;;;;;;;;;;;;;;34.16;29.16;93963.63;4845323;29;19925;-69
2021/08/27 01:10:05;;;;;;;;;;;;;;;34.02;29.18;93950.63;4838074;29;20615;-68
2021/08/27 01:12:42;;;;;;;;;;;;;;;33.97;29.32;93957.38;4845099;29;20363;-68
2021/08/27 01:15:32;;;;;;;;;;;;;;;33.95;29.54;93954.38;4843787;29;19925;-69
2021/08/27 01:18:10;;;;;;;;;;;;;;;33.82;29.90;93950.97;4825858;29;19921;-68
2021/08/27 01:20:47;;;;;;;;;;;;;;;34.11;29.43;93945.25;4832591;29;20250;-68
2021/08/27 01:23:23;;;;;;;;;;;;;;;34.02;29.44;93943.25;4837802;29;19925;-68
2021/08/27 01:25:52;;;;;;;;;;;;;;;33.93;29.69;93956.00;4834623;29;19925;-68
2021/08/27 01:28:20;;;;;;;;;;;;;;;34.14;28.97;93960.63;4840522;29;19928;-68
2021/08/27 01:31:06;;;;;;;;;;;;;;;34.35;29.01;93974.53;4834418;29;19927;-69
2021/08/27 01:33:32;;;;;;;;;;;;;;;34.11;28.97;93966.19;4836071;29;19920;-68
2021/08/27 01:36:00;;;;;;;;;;;;;;;34.05;29.12;93968.69;4842358;29;19931;-68
2021/08/27 01:38:32;;;;;;;;;;;;;;;34.53;28.46;93971.88;4869730;29;20230;-69
2021/08/27 01:40:59;;;;;;;;;;;;;;;34.11;29.02;93961.50;4840838;29;19928;-68
2021/08/27 01:43:26;;;;;;;;;;;;;;;34.22;29.04;93961.84;4825837;29;19928;-68
2021/08/27 01:45:53;;;;;;;;;;;;;;;34.33;28.67;93964.88;4836004;29;19920;-66
2021/08/27 01:48:20;;;;;;;;;;;;;;;34.40;28.60;93966.59;4843670;29;19925;-69
2021/08/27 01:50:47;;;;;;;;;;;;;;;34.61;28.19;93962.25;4840237;29;19928;-69
2021/08/27 01:53:14;;;;;;;;;;;;;;;34.31;28.66;93953.72;4826413;29;19928;-69
2021/08/27 01:55:41;;;;;;;;;;;;;;;34.25;28.59;93950.09;4834240;29;19928;-69
2021/08/27 01:58:07;;;;;;;;;;;;;;;34.16;28.72;93949.31;4844305;29;19932;-69
2021/08/27 02:00:35;;;;;;;;;;;;;;;33.99;28.89;93944.13;4843090;29;20271;-68
2021/08/27 02:03:01;;;;;;;;;;;;;;;34.35;28.54;93950.13;4842673;29;19925;-69
2021/08/27 02:05:28;;;;;;;;;;;;;;;34.32;28.90;93947.09;4861302;29;19928;-69
2021/08/27 02:07:55;;;;;;;;;;;;;;;34.33;28.60;93951.31;4861149;29;19928;-69
2021/08/27 02:10:22;;;;;;;;;;;;;;;34.58;28.19;93949.56;4861566;29;19931;-68
2021/08/27 02:12:49;;;;;;;;;;;;;;;34.11;29.04;93949.91;4850115;29;19925;-70
2021/08/27 02:15:16;;;;;;;;;;;;;;;33.99;28.96;93959.66;4848566;29;19924;-69
2021/08/27 02:17:43;;;;;;;;;;;;;;;33.83;29.25;93957.13;4860582;29;19931;-69
2021/08/27 02:20:10;;;;;;;;;;;;;;;34.17;28.50;93954.28;4858152;29;19921;-70
2021/08/27 02:22:37;;;;;;;;;;;;;;;34.31;28.71;93953.72;4880396;29;19927;-69
2021/08/27 02:25:04;;;;;;;;;;;;;;;34.24;28.76;93953.25;4860714;29;19931;-69
2021/08/27 02:27:31;;;;;;;;;;;;;;;34.22;28.50;93951.00;4876303;29;20232;-69
2021/08/27 02:29:58;;;;;;;;;;;;;;;34.23;28.61;93944.38;4860226;29;19924;-69
2021/08/27 02:32:25;;;;;;;;;;;;;;;34.08;29.05;93939.94;4860773;29;20284;-66
2021/08/27 02:34:52;;;;;;;;;;;;;;;34.03;29.05;93938.56;4861968;29;19927;-69
2021/08/27 02:37:19;;;;;;;;;;;;;;;33.90;29.09;93935.22;4842229;29;20499;-69
2021/08/27 02:39:46;;;;;;;;;;;;;;;34.12;29.08;93946.75;4844215;29;19921;-69
2021/08/27 02:42:13;;;;;;;;;;;;;;;34.29;28.65;93958.84;4828027;29;19933;-69
2021/08/27 02:44:40;;;;;;;;;;;;;;;34.14;29.15;93952.47;4827380;29;19920;-69
2021/08/27 02:47:07;;;;;;;;;;;;;;;33.95;29.17;93959.03;4872753;29;20359;-69
2021/08/27 02:49:34;;;;;;;;;;;;;;;34.48;28.11;93961.63;4874576;29;19954;-69
2021/08/27 02:52:05;;;;;;;;;;;;;;;34.18;28.40;93961.22;4876787;29;19950;-69
2021/08/27 02:54:35;;;;;;;;;;;;;;;34.48;28.29;93961.63;4855217;29;19947;-69
2021/08/27 02:57:04;;;;;;;;;;;;;;;34.40;28.25;93960.41;4862595;29;19919;-69
2021/08/27 02:59:31;;;;;;;;;;;;;;;34.00;28.90;93956.50;4842102;29;20308;-69
2021/08/27 03:01:58;;;;;;;;;;;;;;;33.87;29.25;93952.38;4826610;29;19931;-68
2021/08/27 03:04:37;;;;;;;;;;;;;;;34.05;28.87;93957.84;4848579;29;19944;-69
2021/08/27 03:07:06;;;;;;;;;;;;;;;34.29;28.67;93953.41;4840272;29;19924;-69
2021/08/27 03:09:41;;;;;;;;;;;;;;;34.12;29.06;93946.00;4843630;29;19921;-69
2021/08/27 03:12:08;;;;;;;;;;;;;;;33.57;29.68;93949.22;4824319;29;19924;-69
2021/08/27 03:14:35;;;;;;;;;;;;;;;34.07;28.65;93946.56;4836209;29;19931;-70
2021/08/27 03:17:03;;;;;;;;;;;;;;;34.07;28.65;93944.59;4842036;29;19920;-69
2021/08/27 03:19:38;;;;;;;;;;;;;;;34.11;28.71;93933.66;4831351;29;20331;-69
2021/08/27 03:22:11;;;;;;;;;;;;;;;34.09;28.37;93942.19;4839671;29;19928;-69
2021/08/27 03:24:40;;;;;;;;;;;;;;;33.55;28.66;93943.44;4823040;29;19930;-70
2021/08/27 03:27:16;;;;;;;;;;;;;;;33.54;29.04;93952.78;4837640;29;19921;-69
2021/08/27 03:29:44;;;;;;;;;;;;;;;33.66;28.79;93949.25;4824218;29;19925;-69
2021/08/27 03:32:11;;;;;;;;;;;;;;;34.11;28.17;93945.25;4825128;29;19925;-69
2021/08/27 03:34:40;;;;;;;;;;;;;;;34.31;27.96;93951.00;4826393;29;20308;-69
2021/08/27 03:37:06;;;;;;;;;;;;;;;34.36;28.03;93954.38;4841525;29;19928;-69
2021/08/27 03:39:34;;;;;;;;;;;;;;;34.40;27.74;93955.75;4865830;29;19925;-69
2021/08/27 03:42:02;;;;;;;;;;;;;;;34.45;27.55;93962.53;4823956;29;19936;-69
2021/08/27 03:44:30;;;;;;;;;;;;;;;34.24;27.75;93959.44;4824780;29;19921;-69
2021/08/27 03:46:57;;;;;;;;;;;;;;;34.50;27.50;93961.94;4838586;29;19920;-68
2021/08/27 03:49:24;;;;;;;;;;;;;;;34.27;27.78;93961.25;4825356;29;19924;-70
2021/08/27 03:51:51;;;;;;;;;;;;;;;34.11;28.09;93956.09;4833178;29;19951;-68
2021/08/27 03:54:18;;;;;;;;;;;;;;;33.92;28.73;93946.38;4824929;29;19924;-68
2021/08/27 03:56:45;;;;;;;;;;;;;;;34.26;28.00;93946.19;4835099;29;19928;-68
2021/08/27 03:59:12;;;;;;;;;;;;;;;34.42;28.01;93953.34;4842778;29;19920;-68
2021/08/27 04:01:39;;;;;;;;;;;;;;;34.33;28.14;93956.72;4827279;29;19932;-66
2021/08/27 04:04:07;;;;;;;;;;;;;;;34.28;28.09;93945.72;4838005;29;19932;-69
2021/08/27 04:06:34;;;;;;;;;;;;;;;34.25;28.10;93960.19;4835875;29;19932;-64
2021/08/27 04:09:01;;;;;;;;;;;;;;;33.94;28.71;93957.53;4833514;29;19924;-69
2021/08/27 04:11:28;;;;;;;;;;;;;;;34.06;28.67;93958.63;4824279;29;19920;-68
2021/08/27 04:13:54;;;;;;;;;;;;;;;34.17;28.66;93962.44;4824240;29;20344;-62
2021/08/27 04:16:21;;;;;;;;;;;;;;;33.80;28.97;93963.44;4833031;29;19921;-64
2021/08/27 04:18:49;;;;;;;;;;;;;;;34.02;28.68;93964.19;4824132;29;19924;-60
2021/08/27 04:21:15;;;;;;;;;;;;;;;33.95;28.78;93959.78;4855589;29;19929;-60
2021/08/27 04:23:42;;;;;;;;;;;;;;;33.94;28.79;93966.41;4824241;29;19921;-67
2021/08/27 04:26:09;;;;;;;;;;;;;;;34.17;28.66;93959.72;4828857;29;19928;-69
2021/08/27 04:28:36;;;;;;;;;;;;;;;34.09;28.75;93961.19;4841659;29;19932;-69
2021/08/27 04:31:03;;;;;;;;;;;;;;;33.91;29.35;93966.56;4837491;29;19924;-66
2021/08/27 04:33:29;;;;;;;;;;;;;;;34.79;27.55;93975.84;4843982;29;19920;-66
2021/08/27 04:35:57;;;;;;;;;;;;;;;35.16;27.05;93976.66;4843445;29;20281;-66
2021/08/27 04:38:24;;;;;;;;;;;;;;;34.24;28.38;93975.72;4834021;29;20629;-56
2021/08/27 04:40:51;;;;;;;;;;;;;;;33.88;29.26;93972.88;4852484;29;19925;-53
2021/08/27 04:43:18;;;;;;;;;;;;;;;33.59;29.94;93978.56;4849899;29;19927;-58
2021/08/27 04:45:45;;;;;;;;;;;;;;;33.61;29.59;93974.22;4849902;29;19932;-58
2021/08/27 04:48:11;;;;;;;;;;;;;;;33.83;29.67;93978.81;4849791;29;19931;-68
2021/08/27 04:50:38;;;;;;;;;;;;;;;33.76;29.84;93976.38;4849884;29;19927;-60
2021/08/27 04:53:05;;;;;;;;;;;;;;;33.70;29.62;93981.63;4849872;29;19920;-52
2021/08/27 04:55:32;;;;;;;;;;;;;;;33.90;29.38;93973.19;4849647;29;19920;-53
2021/08/27 04:57:59;;;;;;;;;;;;;;;34.03;29.11;93976.53;4848593;29;19928;-67
2021/08/27 05:00:26;;;;;;;;;;;;;;;34.04;29.06;93978.03;4849924;29;20320;-68
2021/08/27 05:02:53;;;;;;;;;;;;;;;33.96;29.26;93976.81;4850080;29;20320;-69
2021/08/27 05:05:20;;;;;;;;;;;;;;;34.95;27.46;93974.09;4883706;29;19935;-68
2021/08/27 05:07:47;;;;;;;;;;;;;;;35.53;26.59;93982.06;4884407;29;19954;-67
2021/08/27 05:10:14;;;;;;;;;;;;;;;34.62;27.85;93982.78;4886600;29;19982;-69
2021/08/27 05:12:41;;;;;;;;;;;;;;;34.32;28.41;93987.78;4887292;29;19927;-68
2021/08/27 05:15:08;;;;;;;;;;;;;;;34.20;28.57;93977.81;4886401;29;19920;-67
2021/08/27 05:17:37;;;;;;;;;;;;;;;34.29;28.35;93982.50;4886794;29;19921;-69
2021/08/27 05:20:05;;;;;;;;;;;;;;;34.00;28.83;93977.44;4885872;29;19930;-68
2021/08/27 05:22:32;;;;;;;;;;;;;;;34.16;28.87;93979.16;4868725;29;19935;-68
2021/08/27 05:24:59;;;;;;;;;;;;;;;34.09;28.70;93974.75;4871253;29;20243;-68
2021/08/27 05:27:25;;;;;;;;;;;;;;;34.07;28.87;93982.56;4886608;29;19950;-69
2021/08/27 05:29:52;;;;;;;;;;;;;;;33.99;28.91;93978.63;4886556;29;20338;-68
2021/08/27 05:32:19;;;;;;;;;;;;;;;34.83;27.96;93981.88;4886303;29;19927;-69
2021/08/27 05:34:46;;;;;;;;;;;;;;;34.42;28.78;93996.75;4886257;29;19927;-68
2021/08/27 05:37:13;;;;;;;;;;;;;;;34.36;29.00;93993.13;4885774;29;20276;-68
2021/08/27 05:39:40;;;;;;;;;;;;;;;34.60;28.27;93990.59;4886933;29;19926;-68
2021/08/27 05:42:07;;;;;;;;;;;;;;;34.50;28.67;93997.22;4886777;29;19959;-68
2021/08/27 05:44:33;;;;;;;;;;;;;;;34.37;29.04;94004.72;4886927;29;20346;-69
2021/08/27 05:47:00;;;;;;;;;;;;;;;34.38;28.82;93992.66;4886475;29;19982;-69
2021/08/27 05:49:27;;;;;;;;;;;;;;;34.45;28.94;93997.81;4886716;29;20398;-69
2021/08/27 05:51:54;;;;;;;;;;;;;;;34.03;29.45;93998.97;4883363;29;19920;-69
2021/08/27 05:54:21;;;;;;;;;;;;;;;34.07;29.16;93998.84;4883781;29;19924;-68
2021/08/27 05:56:48;;;;;;;;;;;;;;;34.04;29.59;93999.72;4883246;29;19930;-69
2021/08/27 05:59:14;;;;;;;;;;;;;;;34.52;28.91;94008.38;4883810;29;19927;-69
2021/08/27 06:01:41;;;;;;;;;;;;;;;34.43;29.16;94009.09;4883296;29;19924;-69
2021/08/27 06:04:08;;;;;;;;;;;;;;;34.15;29.26;94005.53;4883440;29;19963;-69
2021/08/27 06:06:35;;;;;;;;;;;;;;;34.01;29.63;94003.34;4883483;29;19924;-70
2021/08/27 06:09:05;;;;;;;;;;;;;;;34.08;29.49;94005.78;4873042;29;19920;-58
2021/08/27 06:11:35;;;;;;;;;;;;;;;34.20;29.52;94007.66;4865321;29;19950;-55
2021/08/27 06:14:03;;;;;;;;;;;;;;;33.97;29.70;94005.44;4865319;29;20336;-62
2021/08/27 06:16:30;;;;;;;;;;;;;;;34.05;29.86;94001.25;4872277;29;19924;-57
2021/08/27 06:18:56;;;;;;;;;;;;;;;33.88;30.11;94008.09;4883402;29;19919;-63
2021/08/27 06:21:23;;;;;;;;;;;;;;;34.18;30.02;94015.47;4867192;29;19924;-60
2021/08/27 06:23:52;;;;;;;;;;;;;;;34.24;29.87;94012.94;4883678;29;19924;-58
2021/08/27 06:26:19;;;;;;;;;;;;;;;34.08;29.79;94007.72;4883004;29;19931;-57
2021/08/27 06:28:46;;;;;;;;;;;;;;;34.13;29.92;94009.88;4882304;29;19927;-59
2021/08/27 06:31:13;;;;;;;;;;;;;;;34.10;29.82;94002.63;4883509;29;19923;-59
2021/08/27 06:33:40;;;;;;;;;;;;;;;34.09;29.87;94001.84;4882388;29;20231;-58
2021/08/27 06:36:08;;;;;;;;;;;;;;;34.08;29.73;94005.00;4882019;29;19924;-56
2021/08/27 06:38:35;;;;;;;;;;;;;;;34.31;29.40;94007.22;4882829;29;19927;-62
2021/08/27 06:41:03;;;;;;;;;;;;;;;34.16;29.63;93998.91;4882541;29;20255;-58
2021/08/27 06:43:31;;;;;;;;;;;;;;;34.20;29.31;93999.50;4882970;29;19931;-59
2021/08/27 06:46:01;;;;;;;;;;;;;;;34.05;29.74;94000.50;4882983;29;20331;-58
2021/08/27 06:48:28;;;;;;;;;;;;;;;34.15;29.40;93997.38;4883086;29;20334;-57
2021/08/27 06:50:55;;;;;;;;;;;;;;;34.29;29.56;94004.94;4883160;29;19931;-57
2021/08/27 06:53:22;;;;;;;;;;;;;;;34.31;29.30;94013.41;4882063;29;19971;-56
2021/08/27 06:55:49;;;;;;;;;;;;;;;34.23;29.67;94009.47;4882108;29;19920;-56
2021/08/27 06:58:16;;;;;;;;;;;;;;;34.38;29.11;94012.41;4882516;29;19920;-57
2021/08/27 07:00:43;;;;;;;;;;;;;;;34.22;29.37;94005.22;4883099;29;19920;-59
2021/08/27 07:03:10;;;;;;;;;;;;;;;34.25;29.66;94009.75;4881183;29;19954;-56
2021/08/27 07:05:37;;;;;;;;;;;;;;;34.40;29.46;94011.97;4882911;29;19927;-59
2021/08/27 07:08:03;;;;;;;;;;;;;;;34.54;29.27;94019.53;4882080;29;19931;-61
2021/08/27 07:10:30;;;;;;;;;;;;;;;34.23;29.51;94012.16;4882876;29;20208;-59
2021/08/27 07:12:57;;;;;;;;;;;;;;;34.32;29.33;94020.34;4877664;29;19923;-58
2021/08/27 07:15:24;;;;;;;;;;;;;;;34.27;29.41;94015.50;4866073;29;19927;-57
2021/08/27 07:17:51;;;;;;;;;;;;;;;34.48;29.37;94022.06;4881417;29;19931;-57
2021/08/27 07:20:18;;;;;;;;;;;;;;;34.38;29.67;94033.38;4881662;29;19920;-56
2021/08/27 07:22:46;;;;;;;;;;;;;;;34.44;29.45;94026.13;4882318;29;19924;-60
2021/08/27 07:25:13;;;;;;;;;;;;;;;34.70;28.97;94029.38;4882155;29;19930;-55
2021/08/27 07:27:39;;;;;;;;;;;;;;;34.69;29.05;94036.75;4881454;29;19936;-57
2021/08/27 07:30:07;;;;;;;;;;;;;;;35.14;28.40;94038.81;4882307;29;19930;-57
2021/08/27 07:32:34;;;;;;;;;;;;;;;35.59;28.62;94034.59;4882079;29;20235;-56
2021/08/27 07:35:01;;;;;;;;;;;;;;;34.95;29.21;94044.69;4882326;29;19926;-56
2021/08/27 07:37:28;;;;;;;;;;;;;;;34.66;29.48;94036.91;4881278;29;20370;-57
2021/08/27 07:39:54;;;;;;;;;;;;;;;35.20;28.79;94038.97;4881507;29;20235;-57
2021/08/27 07:42:21;;;;;;;;;;;;;;;35.01;28.86;94040.16;4881566;29;19923;-60
2021/08/27 07:44:48;;;;;;;;;;;;;;;34.86;29.47;94040.72;4882223;29;19939;-58
2021/08/27 07:47:15;;;;;;;;;;;;;;;35.28;28.60;94042.13;4880731;29;19924;-56
2021/08/27 07:49:42;;;;;;;;;;;;;;;35.56;27.61;94035.50;4882039;29;20272;-57
2021/08/27 07:52:09;;;;;;;;;;;;;;;35.44;27.92;94039.91;4873612;29;20227;-56
2021/08/27 07:54:36;;;;;;;;;;;;;;;35.22;28.13;94040.03;4881896;29;19919;-57
2021/08/27 07:57:03;;;;;;;;;;;;;;;35.67;27.77;94030.38;4864830;29;19931;-58
2021/08/27 07:59:30;;;;;;;;;;;;;;;35.39;28.49;94035.06;4881275;29;20227;-59
2021/08/27 08:01:56;;;;;;;;;;;;;;;35.65;28.24;94040.16;4881694;29;19920;-60
2021/08/27 08:04:23;;;;;;;;;;;;;;;35.88;27.58;94027.91;4880409;29;19928;-56
2021/08/27 08:06:50;;;;;;;;;;;;;;;35.58;28.62;94041.22;4880659;29;20339;-61
2021/08/27 08:09:17;;;;;;;;;;;;;;;35.93;27.81;94036.22;4881462;29;19924;-60
2021/08/27 08:11:44;;;;;;;;;;;;;;;36.63;26.82;94045.03;4872033;29;19920;-57
2021/08/27 08:14:10;;;;;;;;;;;;;;;36.50;27.07;94039.06;4881154;29;19920;-59
2021/08/27 08:16:37;;;;;;;;;;;;;;;37.19;26.13;94032.59;4877762;29;19924;-58
2021/08/27 08:19:04;;;;;;;;;;;;;;;37.98;25.16;94032.06;4862891;29;19920;-58
2021/08/27 08:21:32;;;;;;;;;;;;;;;37.81;24.93;94020.91;4862838;29;19925;-58
2021/08/27 08:23:58;;;;;;;;;;;;;;;37.58;25.66;94024.44;4880196;29;19930;-59
2021/08/27 08:26:25;;;;;;;;;;;;;;;37.21;25.74;94023.94;4879686;29;19931;-58
2021/08/27 08:28:54;;;;;;;;;;;;;;;36.99;25.73;94021.56;4881224;29;19927;-56
2021/08/27 08:31:21;;;;;;;;;;;;;;;37.84;25.12;94021.94;4880630;29;19920;-56
2021/08/27 08:33:49;;;;;;;;;;;;;;;37.76;25.21;94032.47;4879934;29;19934;-60
2021/08/27 08:36:16;;;;;;;;;;;;;;;37.87;24.62;94021.75;4880938;29;19923;-61
2021/08/27 08:38:43;;;;;;;;;;;;;;;37.84;24.68;94014.50;4881183;29;19927;-59
2021/08/27 08:41:10;;;;;;;;;;;;;;;38.31;24.21;94012.78;4859245;29;19920;-60
2021/08/27 08:43:37;;;;;;;;;;;;;;;38.31;24.46;94012.78;4876731;29;20243;-58
2021/08/27 08:46:04;;;;;;;;;;;;;;;38.47;23.46;94022.44;4880975;29;19931;-56
2021/08/27 08:48:31;;;;;;;;;;;;;;;37.90;24.38;94018.06;4880931;29;19920;-57
2021/08/27 08:50:57;;;;;;;;;;;;;;;38.93;23.29;94017.13;4864441;29;19936;-59
2021/08/27 08:53:26;;;;;;;;;;;;;;;39.14;23.38;94020.63;4879224;29;19919;-56
2021/08/27 08:55:53;;;;;;;;;;;;;;;39.06;23.70;94012.09;4880686;29;20220;-59
2021/08/27 08:58:19;;;;;;;;;;;;;;;38.73;23.92;94019.84;4880302;29;19927;-57
2021/08/27 09:00:46;;;;;;;;;;;;;;;38.17;24.44;94024.47;4880965;29;19920;-59
2021/08/27 09:03:14;;;;;;;;;;;;;;;38.27;24.16;94023.16;4879393;29;19969;-60
2021/08/27 09:05:41;;;;;;;;;;;;;;;38.00;24.67;94020.69;4880560;29;19932;-57
2021/08/27 09:08:08;;;;;;;;;;;;;;;37.54;25.67;94018.41;4864320;29;19924;-57
2021/08/27 09:10:44;;;;;;;;;;;;;;;38.40;24.38;94009.94;4850298;29;19920;-56
2021/08/27 09:13:11;;;;;;;;;;;;;;;38.39;24.30;94018.59;4872281;29;19920;-60
2021/08/27 09:15:38;;;;;;;;;;;;;;;38.51;24.36;94012.06;4881166;29;19928;-60
2021/08/27 09:18:06;;;;;;;;;;;;;;;39.25;23.63;94009.81;4867564;29;19931;-59
2021/08/27 09:20:33;;;;;;;;;;;;;;;38.96;23.70;94010.69;4861561;29;19927;-60
2021/08/27 09:23:02;;;;;;;;;;;;;;;38.64;23.69;94001.59;4870917;29;19931;-57
2021/08/27 09:25:31;;;;;;;;;;;;;;;38.13;24.38;94007.50;4881471;29;19944;-60
2021/08/27 09:27:59;;;;;;;;;;;;;;;37.79;24.41;93996.06;4884059;29;19924;-56
2021/08/27 09:30:26;;;;;;;;;;;;;;;38.90;23.96;93992.75;4884623;29;19927;-56
2021/08/27 09:32:54;;;;;;;;;;;;;;;39.14;23.42;93988.59;4883916;29;19919;-57
2021/08/27 09:35:22;;;;;;;;;;;;;;;39.19;22.90;93995.34;4883810;29;19920;-56
2021/08/27 09:37:49;;;;;;;;;;;;;;;39.63;22.54;94002.53;4865734;29;19936;-58
2021/08/27 09:40:17;;;;;;;;;;;;;;;39.24;22.60;93991.16;4865830;29;19924;-56
2021/08/27 09:42:51;;;;;;;;;;;;;;;39.41;22.53;93983.91;4871506;29;19924;-62
2021/08/27 09:45:18;;;;;;;;;;;;;;;39.56;22.38;93981.06;4884374;29;20213;-57
2021/08/27 09:47:56;;;;;;;;;;;;;;;40.15;22.22;93978.63;4872235;29;20418;-59
2021/08/27 09:50:24;;;;;;;;;;;;;;;40.07;21.78;93977.53;4865624;29;19928;-58
2021/08/27 09:53:17;;;;;;;;;;;;;;;39.74;22.72;93980.75;4871933;29;19954;-56
2021/08/27 09:55:54;;;;;;;;;;;;;;;40.12;21.87;93974.13;4881255;29;19923;-56
2021/08/27 09:58:21;;;;;;;;;;;;;;;39.74;22.13;93961.59;4867505;29;20232;-57
2021/08/27 10:00:59;;;;;;;;;;;;;;;39.78;21.82;93956.66;4867652;29;19919;-57
2021/08/27 10:03:26;;;;;;;;;;;;;;;39.92;21.86;93957.78;4883111;29;19927;-56
2021/08/27 10:05:54;;;;;;;;;;;;;;;39.45;22.07;93960.56;4883306;29;19924;-60
2021/08/27 10:08:22;;;;;;;;;;;;;;;40.29;21.38;93960.53;4883510;29;19923;-57
2021/08/27 10:10:50;;;;;;;;;;;;;;;40.39;21.75;93959.13;4882686;29;19928;-61
2021/08/27 10:13:16;;;;;;;;;;;;;;;40.15;21.21;93966.91;4883058;29;20346;-61
2021/08/27 10:15:44;;;;;;;;;;;;;;;40.38;20.74;93967.84;4883600;29;19931;-59
2021/08/27 10:18:11;;;;;;;;;;;;;;;40.27;21.24;93952.06;4883241;29;19924;-59
2021/08/27 10:20:39;;;;;;;;;;;;;;;40.50;21.26;93955.69;4883509;29;20228;-57
2021/08/27 10:23:06;;;;;;;;;;;;;;;39.98;21.02;93948.38;4882947;29;19934;-58
2021/08/27 10:25:33;;;;;;;;;;;;;;;40.11;20.65;93944.50;4883128;29;20255;-57
2021/08/27 10:28:00;;;;;;;;;;;;;;;40.04;21.13;93945.69;4883226;29;19920;-58
2021/08/27 10:30:47;;;;;;;;;;;;;;;40.54;20.83;93946.00;4867011;29;19924;-59
2021/08/27 10:33:14;;;;;;;;;;;;;;;40.27;20.89;93936.38;4882423;29;19920;-59
2021/08/27 10:35:45;;;;;;;;;;;;;;;40.60;20.81;93935.06;4882455;29;19928;-58
2021/08/27 10:38:31;;;;;;;;;;;;;;;40.25;20.86;93933.38;4882646;29;19924;-59
2021/08/27 10:41:07;;;;;;;;;;;;;;;40.60;20.43;93935.06;4882005;29;19924;-58
2021/08/27 10:43:49;;;;;;;;;;;;;;;40.25;20.58;93940.84;4882470;29;19932;-60
2021/08/27 10:46:16;;;;;;;;;;;;;;;40.73;19.77;93929.91;4882930;29;19931;-57
2021/08/27 10:48:47;;;;;;;;;;;;;;;39.69;21.31;93922.03;4882421;29;19939;-57
2021/08/27 10:51:29;;;;;;;;;;;;;;;39.99;21.32;93919.03;4882340;29;19927;-58
2021/08/27 10:53:56;;;;;;;;;;;;;;;40.57;20.59;93920.38;4882412;29;19920;-57
2021/08/27 10:56:42;;;;;;;;;;;;;;;40.29;21.04;93917.47;4866044;29;19924;-58
2021/08/27 10:59:10;;;;;;;;;;;;;;;40.44;20.63;93913.84;4881880;29;19924;-57
2021/08/27 11:01:38;;;;;;;;;;;;;;;39.92;20.71;93922.94;4882023;29;20239;-58
2021/08/27 11:04:07;;;;;;;;;;;;;;;39.65;20.39;93910.56;4881879;29;19925;-58
2021/08/27 11:06:42;;;;;;;;;;;;;;;40.35;19.87;93915.53;4882908;29;19924;-59
2021/08/27 11:09:16;;;;;;;;;;;;;;;40.11;20.41;93928.09;4882761;29;19931;-60
2021/08/27 11:11:43;;;;;;;;;;;;;;;40.39;20.48;93931.00;4882929;29;20304;-62
2021/08/27 11:14:20;;;;;;;;;;;;;;;40.53;20.20;93930.81;4882169;29;19926;-61
2021/08/27 11:16:54;;;;;;;;;;;;;;;40.71;19.72;93929.66;4882716;29;19924;-60
2021/08/27 11:19:25;;;;;;;;;;;;;;;40.19;20.00;93929.88;4882715;29;20308;-62
2021/08/27 11:21:56;;;;;;;;;;;;;;;40.07;20.11;93931.03;4882634;29;19935;-57
2021/08/27 11:24:24;;;;;;;;;;;;;;;40.52;19.90;93934.78;4881560;29;20365;-61
2021/08/27 11:26:58;;;;;;;;;;;;;;;40.53;20.17;93941.03;4881492;29;19935;-58
2021/08/27 11:29:35;;;;;;;;;;;;;;;40.30;20.51;93934.66;4882343;29;20251;-57
2021/08/27 11:32:18;;;;;;;;;;;;;;;40.04;20.54;93945.69;4882325;29;19930;-59
2021/08/27 11:35:00;;;;;;;;;;;;;;;39.51;20.50;93944.25;4881867;29;19927;-59
2021/08/27 11:37:37;;;;;;;;;;;;;;;38.91;20.75;93943.09;4881662;29;19924;-59
2021/08/27 11:40:05;;;;;;;;;;;;;;;38.61;21.10;93941.72;4864956;29;19924;-59
2021/08/27 11:42:32;;;;;;;;;;;;;;;39.29;20.57;93941.25;4863102;29;19928;-59
2021/08/27 11:45:10;;;;;;;;;;;;;;;39.52;20.34;93948.47;4881988;29;19930;-58
2021/08/27 11:47:36;;;;;;;;;;;;;;;39.36;20.42;93952.53;4881286;29;19920;-58
2021/08/27 11:50:03;;;;;;;;;;;;;;;39.42;20.68;93952.59;4881801;29;20325;-60
2021/08/27 11:52:31;;;;;;;;;;;;;;;39.73;20.25;93952.63;4881896;29;19927;-57
2021/08/27 11:54:59;;;;;;;;;;;;;;;39.84;20.10;93943.03;4881603;29;19931;-60
2021/08/27 11:57:26;;;;;;;;;;;;;;;39.90;20.03;93946.56;4853791;29;19924;-59
2021/08/27 12:00:11;;;;;;;;;;;;;;;39.48;20.72;93953.38;4847350;29;19927;-59
2021/08/27 12:02:41;;;;;;;;;;;;;;;39.98;20.49;93953.84;4866332;29;19924;-60
2021/08/27 12:05:12;;;;;;;;;;;;;;;40.01;20.18;93958.34;4881188;29;20331;-57
2021/08/27 12:07:52;;;;;;;;;;;;;;;40.24;19.62;93951.03;4880887;29;19962;-57
2021/08/27 12:10:20;;;;;;;;;;;;;;;40.44;19.69;93952.19;4881591;29;19927;-56
2021/08/27 12:12:47;;;;;;;;;;;;;;;40.41;19.96;93950.44;4881186;29;20255;-58
2021/08/27 12:15:24;;;;;;;;;;;;;;;40.52;19.71;93950.47;4881583;29;19927;-59
2021/08/27 12:17:52;;;;;;;;;;;;;;;40.26;19.84;93940.34;4881386;29;19920;-56
2021/08/27 12:20:20;;;;;;;;;;;;;;;40.34;19.48;93940.66;4880748;29;19928;-59
2021/08/27 12:22:48;;;;;;;;;;;;;;;40.58;19.37;93945.78;4880733;29;19927;-59
2021/08/27 12:25:19;;;;;;;;;;;;;;;39.98;19.90;93947.63;4880306;29;19924;-60
2021/08/27 12:27:50;;;;;;;;;;;;;;;40.23;19.51;93944.06;4864206;29;19919;-58
2021/08/27 12:30:17;;;;;;;;;;;;;;;39.98;19.50;93937.44;4881289;29;19939;-57
2021/08/27 12:32:44;;;;;;;;;;;;;;;40.01;19.66;93941.19;4880188;29;19924;-57
2021/08/27 12:35:12;;;;;;;;;;;;;;;39.32;20.41;93943.06;4880144;29;19946;-58
2021/08/27 12:37:39;;;;;;;;;;;;;;;39.69;19.69;93943.91;4881143;29;20259;-58
2021/08/27 12:40:07;;;;;;;;;;;;;;;39.97;19.68;93935.19;4881322;29;19927;-57
2021/08/27 12:42:34;;;;;;;;;;;;;;;39.75;20.01;93936.50;4880865;29;19928;-59
2021/08/27 12:45:05;;;;;;;;;;;;;;;39.43;20.33;93935.69;4864051;29;19924;-58
2021/08/27 12:47:36;;;;;;;;;;;;;;;39.60;20.12;93933.16;4880958;29;19927;-59
2021/08/27 12:50:05;;;;;;;;;;;;;;;39.61;19.82;93929.19;4880456;29;19924;-57
2021/08/27 12:52:32;;;;;;;;;;;;;;;39.90;19.58;93930.16;4864400;29;20234;-57
2021/08/27 12:54:59;;;;;;;;;;;;;;;39.65;19.83;93926.22;4880189;29;19924;-57